Terminal Aerodrome Forecast
Issued by NWS Anchorage, AK

Home | Current Version | Previous Version | Text Only | Print | Product List | Glossary On
Versions: 1 2 3 4 5 6 7 8 9 10 11 12 13 14 15 16
000
FTAK31 PANC 241128
TAFANC
TAF
PANC 241128Z 2412/2518 VRB05KT P6SM SCT080 SCT150
     FM250200 17009KT P6SM FEW050 SCT080=

USA.gov is the U.S. government's official web portal to all federal, state and local government web resources and services.